sensor_id;sensor_type;location;lat;lon;timestamp;P1;durP1;ratioP1;P2;durP2;ratioP2
54121;SDS011;40029;58.708;50.190;2022-11-15T00:03:38;12.33;;;4.57;;
54121;SDS011;40029;58.708;50.190;2022-11-15T00:06:27;9.50;;;4.00;;
54121;SDS011;40029;58.708;50.190;2022-11-15T00:09:17;19.53;;;7.53;;
54121;SDS011;40029;58.708;50.190;2022-11-15T00:12:06;9.70;;;3.63;;
54121;SDS011;40029;58.708;50.190;2022-11-15T00:14:56;13.17;;;4.60;;
54121;SDS011;40029;58.708;50.190;2022-11-15T00:17:48;7.03;;;2.60;;
54121;SDS011;40029;58.708;50.190;2022-11-15T00:20:38;14.53;;;4.43;;
54121;SDS011;40029;58.708;50.190;2022-11-15T00:23:28;15.43;;;5.83;;
54121;SDS011;40029;58.708;50.190;2022-11-15T00:26:17;8.67;;;4.17;;
54121;SDS011;40029;58.708;50.190;2022-11-15T00:29:07;9.40;;;4.37;;
54121;SDS011;40029;58.708;50.190;2022-11-15T00:31:56;11.30;;;4.17;;
54121;SDS011;40029;58.708;50.190;2022-11-15T00:34:45;12.03;;;4.40;;
54121;SDS011;40029;58.708;50.190;2022-11-15T00:37:35;18.50;;;2.90;;
54121;SDS011;40029;58.708;50.190;2022-11-15T00:40:24;7.87;;;3.20;;
54121;SDS011;40029;58.708;50.190;2022-11-15T00:43:14;13.77;;;4.03;;
54121;SDS011;40029;58.708;50.190;2022-11-15T00:46:03;13.50;;;4.03;;
54121;SDS011;40029;58.708;50.190;2022-11-15T00:48:53;26.13;;;6.97;;
54121;SDS011;40029;58.708;50.190;2022-11-15T00:51:42;43.73;;;14.13;;
54121;SDS011;40029;58.708;50.190;2022-11-15T00:54:32;11.37;;;4.60;;
54121;SDS011;40029;58.708;50.190;2022-11-15T00:57:21;8.37;;;3.33;;
54121;SDS011;40029;58.708;50.190;2022-11-15T01:00:11;17.30;;;4.80;;
54121;SDS011;40029;58.708;50.190;2022-11-15T01:03:01;12.47;;;4.77;;
54121;SDS011;40029;58.708;50.190;2022-11-15T01:05:50;18.37;;;6.63;;
54121;SDS011;40029;58.708;50.190;2022-11-15T01:08:40;23.90;;;7.17;;
54121;SDS011;40029;58.708;50.190;2022-11-15T01:11:29;9.43;;;3.23;;
54121;SDS011;40029;58.708;50.190;2022-11-15T01:14:19;6.90;;;3.00;;
54121;SDS011;40029;58.708;50.190;2022-11-15T01:17:08;6.07;;;2.73;;
54121;SDS011;40029;58.708;50.190;2022-11-15T01:19:58;12.47;;;4.63;;
54121;SDS011;40029;58.708;50.190;2022-11-15T01:22:47;11.90;;;4.20;;
54121;SDS011;40029;58.708;50.190;2022-11-15T01:25:36;18.20;;;4.53;;
54121;SDS011;40029;58.708;50.190;2022-11-15T01:28:29;23.50;;;5.63;;
54121;SDS011;40029;58.708;50.190;2022-11-15T01:31:22;18.90;;;5.82;;
54121;SDS011;40029;58.708;50.190;2022-11-15T01:34:12;31.13;;;6.33;;
54121;SDS011;40029;58.708;50.190;2022-11-15T01:37:01;12.27;;;3.43;;
54121;SDS011;40029;58.708;50.190;2022-11-15T01:39:51;8.70;;;2.83;;
54121;SDS011;40029;58.708;50.190;2022-11-15T01:42:41;8.57;;;3.70;;
54121;SDS011;40029;58.708;50.190;2022-11-15T01:45:30;11.87;;;4.63;;
54121;SDS011;40029;58.708;50.190;2022-11-15T01:48:19;11.90;;;4.07;;
54121;SDS011;40029;58.708;50.190;2022-11-15T01:51:11;9.87;;;3.03;;
54121;SDS011;40029;58.708;50.190;2022-11-15T01:54:06;14.87;;;3.33;;
54121;SDS011;40029;58.708;50.190;2022-11-15T01:57:00;15.17;;;4.53;;
54121;SDS011;40029;58.708;50.190;2022-11-15T01:59:52;7.93;;;3.10;;
54121;SDS011;40029;58.708;50.190;2022-11-15T02:02:42;9.20;;;3.80;;
54121;SDS011;40029;58.708;50.190;2022-11-15T02:05:32;7.83;;;2.90;;
54121;SDS011;40029;58.708;50.190;2022-11-15T02:08:22;6.03;;;3.30;;
54121;SDS011;40029;58.708;50.190;2022-11-15T02:11:11;5.80;;;3.17;;
54121;SDS011;40029;58.708;50.190;2022-11-15T02:14:01;6.77;;;2.60;;
54121;SDS011;40029;58.708;50.190;2022-11-15T02:17:25;4.67;;;2.57;;
54121;SDS011;40029;58.708;50.190;2022-11-15T02:20:39;3.43;;;1.43;;
54121;SDS011;40029;58.708;50.190;2022-11-15T02:36:41;11.30;;;3.20;;
54121;SDS011;40029;58.708;50.190;2022-11-15T02:42:50;8.20;;;3.43;;
54121;SDS011;40029;58.708;50.190;2022-11-15T02:46:05;8.87;;;2.37;;
54121;SDS011;40029;58.708;50.190;2022-11-15T02:49:02;4.40;;;3.20;;
54121;SDS011;40029;58.708;50.190;2022-11-15T02:51:52;8.53;;;3.47;;
54121;SDS011;40029;58.708;50.190;2022-11-15T02:54:52;8.23;;;4.03;;
54121;SDS011;40029;58.708;50.190;2022-11-15T02:57:44;5.33;;;2.50;;
54121;SDS011;40029;58.708;50.190;2022-11-15T03:00:44;5.60;;;2.60;;
54121;SDS011;40029;58.708;50.190;2022-11-15T03:03:49;6.17;;;2.33;;
54121;SDS011;40029;58.708;50.190;2022-11-15T03:07:02;11.03;;;2.80;;
54121;SDS011;40029;58.708;50.190;2022-11-15T03:13:45;5.80;;;2.43;;
54121;SDS011;40029;58.708;50.190;2022-11-15T03:19:44;7.30;;;2.93;;
54121;SDS011;40029;58.708;50.190;2022-11-15T03:22:39;14.57;;;5.43;;
54121;SDS011;40029;58.708;50.190;2022-11-15T03:25:33;8.20;;;4.10;;
54121;SDS011;40029;58.708;50.190;2022-11-15T03:28:28;11.03;;;4.07;;
54121;SDS011;40029;58.708;50.190;2022-11-15T03:31:27;19.27;;;4.33;;
54121;SDS011;40029;58.708;50.190;2022-11-15T03:34:40;11.70;;;4.57;;
54121;SDS011;40029;58.708;50.190;2022-11-15T03:40:39;7.30;;;3.23;;
54121;SDS011;40029;58.708;50.190;2022-11-15T03:46:32;5.50;;;2.23;;
54121;SDS011;40029;58.708;50.190;2022-11-15T03:49:44;7.43;;;3.17;;
54121;SDS011;40029;58.708;50.190;2022-11-15T03:52:38;8.93;;;3.30;;
54121;SDS011;40029;58.708;50.190;2022-11-15T03:55:31;11.17;;;5.03;;
54121;SDS011;40029;58.708;50.190;2022-11-15T03:58:22;9.20;;;4.07;;
54121;SDS011;40029;58.708;50.190;2022-11-15T04:01:11;6.67;;;3.13;;
54121;SDS011;40029;58.708;50.190;2022-11-15T04:04:00;12.47;;;3.40;;
54121;SDS011;40029;58.708;50.190;2022-11-15T04:06:50;7.97;;;3.43;;
54121;SDS011;40029;58.708;50.190;2022-11-15T04:09:39;15.73;;;4.33;;
54121;SDS011;40029;58.708;50.190;2022-11-15T04:12:47;3.90;;;2.30;;
54121;SDS011;40029;58.708;50.190;2022-11-15T04:15:37;5.18;;;2.58;;
54121;SDS011;40029;58.708;50.190;2022-11-15T04:18:27;5.27;;;2.37;;
54121;SDS011;40029;58.708;50.190;2022-11-15T04:21:16;3.67;;;2.20;;
54121;SDS011;40029;58.708;50.190;2022-11-15T04:24:24;8.45;;;2.78;;
54121;SDS011;40029;58.708;50.190;2022-11-15T04:27:13;5.77;;;2.93;;
54121;SDS011;40029;58.708;50.190;2022-11-15T17:32:55;8.40;;;3.70;;
54121;SDS011;40029;58.708;50.190;2022-11-15T17:35:26;13.83;;;4.27;;
54121;SDS011;40029;58.708;50.190;2022-11-15T17:37:57;8.20;;;4.20;;
54121;SDS011;40029;58.708;50.190;2022-11-15T17:40:28;10.33;;;4.17;;
54121;SDS011;40029;58.708;50.190;2022-11-15T17:42:59;17.43;;;4.27;;
54121;SDS011;40029;58.708;50.190;2022-11-15T17:45:30;8.97;;;4.53;;
54121;SDS011;40029;58.708;50.190;2022-11-15T17:48:01;8.20;;;3.47;;
54121;SDS011;40029;58.708;50.190;2022-11-15T17:50:32;12.97;;;4.77;;
54121;SDS011;40029;58.708;50.190;2022-11-15T17:53:04;18.03;;;5.53;;
54121;SDS011;40029;58.708;50.190;2022-11-15T17:55:35;13.73;;;4.23;;
54121;SDS011;40029;58.708;50.190;2022-11-15T17:58:07;9.07;;;3.93;;
54121;SDS011;40029;58.708;50.190;2022-11-15T18:00:38;14.33;;;4.87;;
54121;SDS011;40029;58.708;50.190;2022-11-15T18:03:09;21.80;;;6.57;;
54121;SDS011;40029;58.708;50.190;2022-11-15T18:05:40;13.10;;;5.00;;
54121;SDS011;40029;58.708;50.190;2022-11-15T18:08:13;17.37;;;5.80;;
54121;SDS011;40029;58.708;50.190;2022-11-15T18:10:47;16.13;;;5.10;;
54121;SDS011;40029;58.708;50.190;2022-11-15T18:13:18;20.63;;;7.63;;
54121;SDS011;40029;58.708;50.190;2022-11-15T18:15:52;22.17;;;8.10;;
54121;SDS011;40029;58.708;50.190;2022-11-15T18:18:26;20.27;;;7.40;;
54121;SDS011;40029;58.708;50.190;2022-11-15T18:21:01;17.73;;;6.20;;
54121;SDS011;40029;58.708;50.190;2022-11-15T18:23:36;21.43;;;7.00;;
54121;SDS011;40029;58.708;50.190;2022-11-15T19:02:55;18.43;;;7.63;;
54121;SDS011;40029;58.708;50.190;2022-11-15T19:05:26;24.90;;;6.93;;
54121;SDS011;40029;58.708;50.190;2022-11-15T19:07:57;29.80;;;8.63;;
54121;SDS011;40029;58.708;50.190;2022-11-15T19:10:28;18.23;;;7.37;;
54121;SDS011;40029;58.708;50.190;2022-11-15T19:12:59;14.50;;;5.93;;
54121;SDS011;40029;58.708;50.190;2022-11-15T19:15:30;19.33;;;6.83;;
54121;SDS011;40029;58.708;50.190;2022-11-15T19:18:01;30.33;;;11.33;;
54121;SDS011;40029;58.708;50.190;2022-11-15T19:20:34;92.47;;;25.07;;
54121;SDS011;40029;58.708;50.190;2022-11-15T19:23:05;74.93;;;21.07;;
54121;SDS011;40029;58.708;50.190;2022-11-15T19:25:36;58.33;;;15.80;;
54121;SDS011;40029;58.708;50.190;2022-11-15T19:28:07;35.33;;;9.50;;
54121;SDS011;40029;58.708;50.190;2022-11-15T19:30:38;22.40;;;7.30;;
54121;SDS011;40029;58.708;50.190;2022-11-15T19:33:09;20.57;;;6.53;;
54121;SDS011;40029;58.708;50.190;2022-11-15T19:35:40;20.60;;;6.07;;
54121;SDS011;40029;58.708;50.190;2022-11-15T19:38:11;38.90;;;6.50;;
54121;SDS011;40029;58.708;50.190;2022-11-15T19:40:43;16.67;;;5.43;;
54121;SDS011;40029;58.708;50.190;2022-11-15T19:43:14;15.10;;;5.73;;
54121;SDS011;40029;58.708;50.190;2022-11-15T19:45:51;25.87;;;7.67;;
54121;SDS011;40029;58.708;50.190;2022-11-15T19:48:32;18.77;;;7.43;;
54121;SDS011;40029;58.708;50.190;2022-11-15T19:51:05;19.80;;;6.50;;
54121;SDS011;40029;58.708;50.190;2022-11-15T19:53:39;11.30;;;4.30;;
54121;SDS011;40029;58.708;50.190;2022-11-15T19:56:11;16.23;;;4.27;;
54121;SDS011;40029;58.708;50.190;2022-11-15T19:58:44;13.43;;;5.27;;
54121;SDS011;40029;58.708;50.190;2022-11-15T20:01:29;17.00;;;5.10;;
54121;SDS011;40029;58.708;50.190;2022-11-15T20:04:02;11.93;;;5.53;;
54121;SDS011;40029;58.708;50.190;2022-11-15T20:06:35;12.17;;;4.50;;
54121;SDS011;40029;58.708;50.190;2022-11-15T20:09:12;20.17;;;5.03;;
54121;SDS011;40029;58.708;50.190;2022-11-15T20:11:44;10.03;;;4.43;;
54121;SDS011;40029;58.708;50.190;2022-11-15T20:14:15;8.27;;;4.37;;
54121;SDS011;40029;58.708;50.190;2022-11-15T20:16:46;12.60;;;3.90;;
54121;SDS011;40029;58.708;50.190;2022-11-15T20:19:17;13.93;;;4.87;;
54121;SDS011;40029;58.708;50.190;2022-11-15T20:21:48;11.07;;;4.20;;
54121;SDS011;40029;58.708;50.190;2022-11-15T20:24:19;11.67;;;4.40;;
54121;SDS011;40029;58.708;50.190;2022-11-15T20:26:50;8.13;;;3.90;;
54121;SDS011;40029;58.708;50.190;2022-11-15T20:29:21;10.13;;;4.63;;
54121;SDS011;40029;58.708;50.190;2022-11-15T20:31:52;14.57;;;5.83;;
54121;SDS011;40029;58.708;50.190;2022-11-15T20:34:24;15.97;;;5.23;;
54121;SDS011;40029;58.708;50.190;2022-11-15T20:36:55;15.53;;;5.00;;
54121;SDS011;40029;58.708;50.190;2022-11-15T20:39:26;13.20;;;6.17;;
54121;SDS011;40029;58.708;50.190;2022-11-15T20:41:58;15.93;;;7.80;;
54121;SDS011;40029;58.708;50.190;2022-11-15T20:44:29;11.80;;;6.40;;
54121;SDS011;40029;58.708;50.190;2022-11-15T20:47:00;15.80;;;5.67;;
54121;SDS011;40029;58.708;50.190;2022-11-15T20:49:31;13.53;;;5.37;;
54121;SDS011;40029;58.708;50.190;2022-11-15T20:52:01;15.03;;;6.13;;
54121;SDS011;40029;58.708;50.190;2022-11-15T20:54:33;21.00;;;7.20;;
54121;SDS011;40029;58.708;50.190;2022-11-15T20:57:04;18.70;;;6.13;;
54121;SDS011;40029;58.708;50.190;2022-11-15T20:59:35;20.17;;;7.40;;
54121;SDS011;40029;58.708;50.190;2022-11-15T21:02:13;13.00;;;6.43;;
54121;SDS011;40029;58.708;50.190;2022-11-15T21:04:44;20.10;;;6.53;;
54121;SDS011;40029;58.708;50.190;2022-11-15T21:07:15;14.13;;;5.23;;
54121;SDS011;40029;58.708;50.190;2022-11-15T21:09:46;17.07;;;6.40;;
54121;SDS011;40029;58.708;50.190;2022-11-15T21:12:36;20.30;;;7.27;;
54121;SDS011;40029;58.708;50.190;2022-11-15T21:15:07;21.47;;;7.70;;
54121;SDS011;40029;58.708;50.190;2022-11-15T21:17:38;19.20;;;7.27;;
54121;SDS011;40029;58.708;50.190;2022-11-15T21:20:10;25.13;;;6.30;;
54121;SDS011;40029;58.708;50.190;2022-11-15T21:22:41;23.33;;;7.40;;
54121;SDS011;40029;58.708;50.190;2022-11-15T21:25:13;22.87;;;7.27;;
54121;SDS011;40029;58.708;50.190;2022-11-15T21:27:43;22.80;;;5.90;;
54121;SDS011;40029;58.708;50.190;2022-11-15T21:30:15;22.70;;;7.07;;
54121;SDS011;40029;58.708;50.190;2022-11-15T21:32:46;17.03;;;5.17;;
54121;SDS011;40029;58.708;50.190;2022-11-15T21:35:17;15.30;;;5.37;;
54121;SDS011;40029;58.708;50.190;2022-11-15T21:37:48;10.77;;;4.57;;
54121;SDS011;40029;58.708;50.190;2022-11-15T21:40:19;14.87;;;5.57;;
54121;SDS011;40029;58.708;50.190;2022-11-15T21:42:50;11.93;;;5.03;;
54121;SDS011;40029;58.708;50.190;2022-11-15T21:45:21;9.77;;;4.23;;
54121;SDS011;40029;58.708;50.190;2022-11-15T21:47:52;13.53;;;5.63;;
54121;SDS011;40029;58.708;50.190;2022-11-15T21:50:23;11.40;;;4.40;;
54121;SDS011;40029;58.708;50.190;2022-11-15T21:52:54;10.57;;;4.00;;
54121;SDS011;40029;58.708;50.190;2022-11-15T21:55:25;8.93;;;4.97;;
54121;SDS011;40029;58.708;50.190;2022-11-15T21:57:56;9.20;;;4.20;;
54121;SDS011;40029;58.708;50.190;2022-11-15T22:00:27;18.40;;;6.83;;
54121;SDS011;40029;58.708;50.190;2022-11-15T22:03:16;13.17;;;5.80;;
54121;SDS011;40029;58.708;50.190;2022-11-15T22:05:47;13.70;;;5.80;;
54121;SDS011;40029;58.708;50.190;2022-11-15T22:08:18;12.63;;;4.57;;
54121;SDS011;40029;58.708;50.190;2022-11-15T22:10:49;9.43;;;4.17;;
54121;SDS011;40029;58.708;50.190;2022-11-15T22:13:22;11.57;;;4.43;;
54121;SDS011;40029;58.708;50.190;2022-11-15T22:15:54;10.30;;;3.63;;
54121;SDS011;40029;58.708;50.190;2022-11-15T22:18:26;8.50;;;3.40;;
54121;SDS011;40029;58.708;50.190;2022-11-15T22:21:02;10.70;;;4.83;;
54121;SDS011;40029;58.708;50.190;2022-11-15T22:23:38;7.57;;;2.90;;
54121;SDS011;40029;58.708;50.190;2022-11-15T22:26:11;9.80;;;3.07;;
54121;SDS011;40029;58.708;50.190;2022-11-15T22:28:44;11.30;;;4.57;;
54121;SDS011;40029;58.708;50.190;2022-11-15T22:31:15;18.63;;;6.07;;
54121;SDS011;40029;58.708;50.190;2022-11-15T22:33:46;42.27;;;10.07;;
54121;SDS011;40029;58.708;50.190;2022-11-15T22:36:18;16.10;;;5.03;;
54121;SDS011;40029;58.708;50.190;2022-11-15T22:38:48;14.27;;;5.23;;
54121;SDS011;40029;58.708;50.190;2022-11-15T22:41:19;14.90;;;4.40;;
54121;SDS011;40029;58.708;50.190;2022-11-15T22:43:50;6.07;;;3.20;;
54121;SDS011;40029;58.708;50.190;2022-11-15T22:46:21;8.33;;;4.27;;
54121;SDS011;40029;58.708;50.190;2022-11-15T22:48:52;12.90;;;5.23;;
54121;SDS011;40029;58.708;50.190;2022-11-15T22:51:23;9.90;;;4.00;;
54121;SDS011;40029;58.708;50.190;2022-11-15T22:53:54;17.10;;;5.73;;
54121;SDS011;40029;58.708;50.190;2022-11-15T22:56:31;6.87;;;3.37;;
54121;SDS011;40029;58.708;50.190;2022-11-15T22:59:02;12.37;;;4.40;;
54121;SDS011;40029;58.708;50.190;2022-11-15T23:01:33;7.53;;;3.70;;
54121;SDS011;40029;58.708;50.190;2022-11-15T23:04:04;10.20;;;4.53;;
54121;SDS011;40029;58.708;50.190;2022-11-15T23:06:35;8.30;;;3.73;;
54121;SDS011;40029;58.708;50.190;2022-11-15T23:09:06;11.27;;;3.60;;
54121;SDS011;40029;58.708;50.190;2022-11-15T23:11:39;13.27;;;6.90;;
54121;SDS011;40029;58.708;50.190;2022-11-15T23:14:28;22.10;;;8.27;;
54121;SDS011;40029;58.708;50.190;2022-11-15T23:16:59;18.27;;;7.07;;
54121;SDS011;40029;58.708;50.190;2022-11-15T23:19:30;24.80;;;7.87;;
54121;SDS011;40029;58.708;50.190;2022-11-15T23:22:01;24.13;;;9.87;;
54121;SDS011;40029;58.708;50.190;2022-11-15T23:24:50;31.30;;;10.57;;
54121;SDS011;40029;58.708;50.190;2022-11-15T23:27:22;27.03;;;9.53;;
54121;SDS011;40029;58.708;50.190;2022-11-15T23:29:53;23.80;;;8.53;;
54121;SDS011;40029;58.708;50.190;2022-11-15T23:32:42;41.50;;;11.67;;
54121;SDS011;40029;58.708;50.190;2022-11-15T23:35:32;50.80;;;12.73;;
54121;SDS011;40029;58.708;50.190;2022-11-15T23:38:03;30.73;;;9.37;;
54121;SDS011;40029;58.708;50.190;2022-11-15T23:40:34;21.03;;;6.63;;
54121;SDS011;40029;58.708;50.190;2022-11-15T23:43:05;32.93;;;10.83;;
54121;SDS011;40029;58.708;50.190;2022-11-15T23:45:36;30.80;;;10.83;;
54121;SDS011;40029;58.708;50.190;2022-11-15T23:48:07;43.13;;;13.37;;
54121;SDS011;40029;58.708;50.190;2022-11-15T23:50:38;45.03;;;14.03;;
54121;SDS011;40029;58.708;50.190;2022-11-15T23:53:09;41.23;;;13.13;;
54121;SDS011;40029;58.708;50.190;2022-11-15T23:55:40;28.40;;;9.97;;
54121;SDS011;40029;58.708;50.190;2022-11-15T23:58:11;33.10;;;10.77;;
